createdAt,value
2022-12-12T00:02:10.983Z,57.08
2022-12-12T00:04:37.657Z,57.06
2022-12-12T00:07:04.340Z,57.08
2022-12-12T00:09:30.867Z,57.08
2022-12-12T00:11:57.413Z,57.07
2022-12-12T00:14:23.930Z,57.04
2022-12-12T00:16:50.420Z,57.16
2022-12-12T00:19:16.986Z,57.11
2022-12-12T00:21:43.545Z,57.08
2022-12-12T00:24:10.816Z,57.15
2022-12-12T00:26:37.424Z,57.11
2022-12-12T00:29:04.492Z,57.02
2022-12-12T00:31:31.443Z,57.03
2022-12-12T00:33:58.385Z,57.13
2022-12-12T00:36:28.623Z,57.10
2022-12-12T00:38:55.715Z,56.99
2022-12-12T00:41:22.797Z,57.09
2022-12-12T00:43:49.894Z,57.16
2022-12-12T00:46:18.932Z,57.20
2022-12-12T00:48:45.550Z,57.14
2022-12-12T00:51:19.795Z,57.06
2022-12-12T00:53:47.221Z,57.01
2022-12-12T00:56:16.148Z,57.04
2022-12-12T00:58:43.037Z,56.91
2022-12-12T01:01:15.229Z,56.85
2022-12-12T01:03:42.489Z,56.85
2022-12-12T01:06:10.148Z,57.02
2022-12-12T01:08:38.021Z,57.06
2022-12-12T01:11:05.428Z,56.95
2022-12-12T01:13:32.137Z,56.93
2022-12-12T01:15:58.928Z,56.83
2022-12-12T01:18:25.701Z,56.74
2022-12-12T01:20:52.571Z,57.00
2022-12-12T01:23:19.315Z,56.95
2022-12-12T01:25:45.937Z,56.88
2022-12-12T01:28:12.837Z,56.77
2022-12-12T01:30:39.461Z,56.86
2022-12-12T01:33:06.113Z,56.84
2022-12-12T01:35:34.548Z,56.88
2022-12-12T01:38:01.123Z,56.83
2022-12-12T01:40:30.613Z,56.83
2022-12-12T01:42:57.259Z,56.77
2022-12-12T01:45:57.884Z,56.94
2022-12-12T01:48:30.275Z,56.78
2022-12-12T01:50:59.721Z,56.76
2022-12-12T01:53:29.568Z,56.83
2022-12-12T01:55:57.396Z,56.73
2022-12-12T01:58:24.861Z,56.84
2022-12-12T02:00:51.896Z,56.82
2022-12-12T02:03:18.579Z,56.70
2022-12-12T02:05:54.789Z,56.66
2022-12-12T02:08:23.150Z,56.59
2022-12-12T02:10:50.000Z,56.62
2022-12-12T02:13:20.419Z,56.57
2022-12-12T02:16:23.745Z,56.67
2022-12-12T02:19:11.835Z,56.65
2022-12-12T02:21:42.238Z,56.78
2022-12-12T02:24:40.805Z,56.75
2022-12-12T02:27:44.852Z,56.70
2022-12-12T02:30:18.299Z,56.68
2022-12-12T02:32:50.171Z,56.54
2022-12-12T02:35:35.052Z,56.65
2022-12-12T02:38:34.455Z,56.66
2022-12-12T02:41:45.857Z,56.74
2022-12-12T02:44:24.616Z,56.65
2022-12-12T02:47:04.033Z,56.57
2022-12-12T02:49:38.875Z,56.53
2022-12-12T02:52:07.085Z,56.68
2022-12-12T02:54:34.753Z,56.53
2022-12-12T02:57:02.383Z,56.66
2022-12-12T02:59:40.279Z,56.70
2022-12-12T03:02:25.409Z,56.75
2022-12-12T03:05:28.989Z,56.76
2022-12-12T03:08:36.553Z,56.91
2022-12-12T03:11:12.826Z,56.94
2022-12-12T03:13:46.155Z,57.02
2022-12-12T03:16:38.747Z,57.14
2022-12-12T03:19:27.115Z,56.93
2022-12-12T03:22:07.120Z,56.92
2022-12-12T03:25:03.288Z,56.95
2022-12-12T03:27:47.238Z,56.93
2022-12-12T03:30:16.423Z,56.79
2022-12-12T03:32:50.823Z,56.77
2022-12-12T03:35:26.298Z,56.87
2022-12-12T03:38:00.716Z,56.84
2022-12-12T03:40:33.318Z,56.93
2022-12-12T03:43:07.591Z,56.64
2022-12-12T03:45:53.883Z,56.71
2022-12-12T03:48:29.311Z,56.62
2022-12-12T03:50:59.376Z,56.67
2022-12-12T03:53:38.460Z,56.77
2022-12-12T03:56:31.695Z,56.73
2022-12-12T03:59:14.800Z,56.65
2022-12-12T04:01:50.018Z,56.72
2022-12-12T04:04:41.697Z,56.85
2022-12-12T04:07:21.807Z,56.59
2022-12-12T04:10:07.656Z,56.80
2022-12-12T04:12:58.889Z,56.66
2022-12-12T04:15:41.283Z,56.65
2022-12-12T04:18:25.455Z,56.64
2022-12-12T04:21:32.802Z,56.54
2022-12-12T04:24:23.627Z,56.60
2022-12-12T04:27:10.251Z,56.65
2022-12-12T04:29:50.732Z,56.57
2022-12-12T04:32:17.155Z,56.70
2022-12-12T04:35:02.250Z,56.67
2022-12-12T04:37:39.089Z,56.65
2022-12-12T04:40:10.399Z,56.64
2022-12-12T04:42:43.391Z,56.45
2022-12-12T04:45:15.460Z,56.45
2022-12-12T04:47:46.660Z,56.37
2022-12-12T04:50:14.292Z,56.46
2022-12-12T04:52:43.309Z,56.29
2022-12-12T04:55:20.004Z,56.31
2022-12-12T04:57:50.192Z,56.33
2022-12-12T05:00:17.470Z,56.44
2022-12-12T05:02:54.595Z,56.34
2022-12-12T05:05:39.453Z,56.35
2022-12-12T05:08:39.289Z,56.41
2022-12-12T05:11:06.855Z,56.32
2022-12-12T05:13:36.952Z,56.25
2022-12-12T05:16:35.220Z,56.38
2022-12-12T05:19:02.759Z,56.50
2022-12-12T05:21:29.285Z,56.41
2022-12-12T05:23:55.906Z,56.25
2022-12-12T05:26:31.557Z,56.35
2022-12-12T05:29:03.669Z,56.50
2022-12-12T05:31:33.357Z,56.25
2022-12-12T05:33:59.932Z,56.30
2022-12-12T05:36:26.611Z,56.42
2022-12-12T05:38:53.228Z,56.36
2022-12-12T05:41:19.878Z,55.98
2022-12-12T05:43:46.500Z,56.25
2022-12-12T05:46:13.805Z,56.14
2022-12-12T05:48:40.659Z,56.07
2022-12-12T05:51:07.271Z,56.18
2022-12-12T05:53:41.981Z,56.10
2022-12-12T05:56:11.385Z,56.16
2022-12-12T05:58:41.728Z,56.10
2022-12-12T06:01:09.109Z,56.19
2022-12-12T06:03:35.769Z,56.31
2022-12-12T06:06:06.573Z,56.20
2022-12-12T06:08:33.240Z,56.16
2022-12-12T06:10:59.865Z,56.25
2022-12-12T06:13:26.426Z,56.09
2022-12-12T06:15:53.018Z,56.16
2022-12-12T06:18:19.683Z,56.06
2022-12-12T06:20:46.274Z,56.15
2022-12-12T06:23:12.961Z,56.10
2022-12-12T06:25:39.657Z,56.26
2022-12-12T06:28:06.225Z,56.02
2022-12-12T06:30:33.484Z,56.11
2022-12-12T06:33:00.036Z,56.03
2022-12-12T06:35:26.605Z,56.12
2022-12-12T06:37:53.161Z,55.94
2022-12-12T06:40:19.748Z,56.13
2022-12-12T06:42:48.442Z,56.11
2022-12-12T06:45:16.134Z,56.02
2022-12-12T06:47:42.880Z,56.18
2022-12-12T06:50:09.661Z,56.03
2022-12-12T06:52:36.189Z,56.04
2022-12-12T06:55:03.005Z,56.00
2022-12-12T06:57:29.600Z,55.98
2022-12-12T06:59:56.284Z,55.77
2022-12-12T07:02:29.295Z,55.86
2022-12-12T07:04:56.867Z,55.72
2022-12-12T07:07:23.519Z,55.76
2022-12-12T07:09:50.152Z,55.71
2022-12-12T07:12:16.684Z,55.89
2022-12-12T07:14:43.301Z,55.85
2022-12-12T07:17:09.825Z,55.59
2022-12-12T07:19:36.379Z,55.78
2022-12-12T07:22:09.310Z,55.93
2022-12-12T07:24:36.860Z,55.68
2022-12-12T07:27:04.172Z,55.67
2022-12-12T07:29:30.733Z,55.68
2022-12-12T07:31:57.539Z,55.89
2022-12-12T07:34:24.182Z,55.89
2022-12-12T07:36:50.882Z,55.71
2022-12-12T07:39:21.000Z,55.65
2022-12-12T07:41:48.245Z,55.90
2022-12-12T07:44:19.549Z,55.86
2022-12-12T07:46:52.202Z,55.73
2022-12-12T07:49:18.794Z,55.71
2022-12-12T07:51:48.885Z,55.71
2022-12-12T07:54:15.841Z,55.75
2022-12-12T07:56:42.449Z,55.82
2022-12-12T07:59:09.105Z,55.86
2022-12-12T08:01:35.780Z,55.73
2022-12-12T08:04:02.390Z,55.62
2022-12-12T08:06:28.929Z,55.89
2022-12-12T08:08:55.479Z,55.90
2022-12-12T08:11:23.888Z,56.49
2022-12-12T08:13:51.187Z,56.07
2022-12-12T08:16:21.246Z,56.26
2022-12-12T08:18:48.942Z,56.11
2022-12-12T08:21:21.459Z,56.41
2022-12-12T08:23:52.259Z,56.62
2022-12-12T08:26:19.061Z,56.51
2022-12-12T08:28:49.093Z,56.68
2022-12-12T08:31:17.529Z,56.72
2022-12-12T08:33:44.675Z,56.66
2022-12-12T08:36:16.354Z,56.85
2022-12-12T08:38:43.646Z,56.61
2022-12-12T08:41:11.527Z,56.74
2022-12-12T08:43:39.488Z,56.81
2022-12-12T08:46:11.004Z,56.65
2022-12-12T08:48:40.352Z,56.69
2022-12-12T08:51:07.344Z,56.51
2022-12-12T08:53:34.176Z,56.62
2022-12-12T08:56:00.831Z,56.54
2022-12-12T08:58:27.435Z,56.41
2022-12-12T09:00:54.101Z,56.56
2022-12-12T09:03:24.785Z,56.56
2022-12-12T09:05:55.448Z,56.56
2022-12-12T09:08:22.123Z,56.52
2022-12-12T09:10:50.528Z,56.31
2022-12-12T09:13:17.346Z,56.30
2022-12-12T09:15:43.919Z,56.26
2022-12-12T09:18:10.475Z,56.17
2022-12-12T09:20:37.026Z,56.17
2022-12-12T09:23:03.645Z,55.92
2022-12-12T09:25:32.057Z,56.00
2022-12-12T09:27:58.877Z,56.00
2022-12-12T09:30:25.448Z,55.75
2022-12-12T09:32:52.028Z,55.63
2022-12-12T09:35:18.524Z,55.65
2022-12-12T09:37:45.073Z,55.62
2022-12-12T09:40:19.255Z,55.50
2022-12-12T09:42:51.480Z,55.69
2022-12-12T09:45:20.122Z,55.50
2022-12-12T09:47:50.694Z,55.66
2022-12-12T09:50:41.698Z,55.79
2022-12-12T09:53:15.802Z,55.82
2022-12-12T09:55:53.658Z,55.71
2022-12-12T09:58:23.667Z,55.74
2022-12-12T10:01:05.079Z,55.80
2022-12-12T10:03:49.541Z,55.90
2022-12-12T10:09:25.128Z,55.96
2022-12-12T10:11:54.960Z,56.08
2022-12-12T10:14:33.005Z,56.14
2022-12-12T10:17:01.949Z,55.92
2022-12-12T10:19:35.278Z,56.16
2022-12-12T10:22:08.215Z,56.18
2022-12-12T10:24:53.283Z,56.27
2022-12-12T10:27:19.939Z,56.24
2022-12-12T10:29:48.638Z,56.31
2022-12-12T10:32:29.526Z,56.38
2022-12-12T10:35:27.001Z,56.29
2022-12-12T10:38:11.888Z,56.19
2022-12-12T10:40:57.645Z,56.15
2022-12-12T10:43:34.444Z,56.26
2022-12-12T10:46:31.046Z,56.19
2022-12-12T10:48:57.903Z,56.08
2022-12-12T10:51:27.890Z,56.16
2022-12-12T10:53:55.517Z,55.99
2022-12-12T10:56:25.688Z,55.96
2022-12-12T10:58:57.428Z,56.10
2022-12-12T11:02:09.216Z,55.89
2022-12-12T11:04:27.704Z,55.87
2022-12-12T11:06:56.262Z,55.75
2022-12-12T11:09:26.850Z,55.73
2022-12-12T11:12:02.055Z,55.65
2022-12-12T11:15:02.140Z,55.29
2022-12-12T11:17:36.067Z,55.55
2022-12-12T11:20:08.207Z,55.32
2022-12-12T11:22:38.761Z,55.25
2022-12-12T11:25:07.332Z,55.20
2022-12-12T11:27:40.580Z,55.20
2022-12-12T11:30:22.555Z,55.04
2022-12-12T11:32:52.085Z,54.94
2022-12-12T11:35:45.636Z,54.74
2022-12-12T11:38:18.715Z,54.84
2022-12-12T11:40:46.914Z,54.72
2022-12-12T11:43:27.478Z,54.75
2022-12-12T11:46:03.122Z,54.48
2022-12-12T11:48:51.579Z,54.25
2022-12-12T11:51:34.839Z,54.18
2022-12-12T11:54:04.716Z,54.25
2022-12-12T11:56:50.104Z,54.20
2022-12-12T11:59:28.584Z,54.09
2022-12-12T12:02:09.319Z,54.01
2022-12-12T12:04:53.228Z,54.00
2022-12-12T12:07:32.618Z,53.95
2022-12-12T12:10:43.605Z,53.85
2022-12-12T12:13:32.372Z,53.76
2022-12-12T12:16:15.819Z,53.76
2022-12-12T12:18:54.444Z,53.67
2022-12-12T12:21:28.746Z,53.76
2022-12-12T12:24:19.696Z,53.55
2022-12-12T12:27:00.933Z,53.63
2022-12-12T12:30:01.143Z,53.42
2022-12-12T12:32:36.719Z,53.57
2022-12-12T12:35:53.026Z,53.29
2022-12-12T12:38:46.584Z,53.42
2022-12-12T12:41:29.369Z,53.32
2022-12-12T12:44:04.415Z,53.28
2022-12-12T12:47:03.167Z,53.00
2022-12-12T12:49:51.716Z,53.02
2022-12-12T12:52:57.057Z,52.86
2022-12-12T12:55:28.688Z,52.81
2022-12-12T12:57:55.315Z,52.72
2022-12-12T13:00:26.713Z,52.33
2022-12-12T13:02:56.396Z,52.26
2022-12-12T13:05:45.341Z,52.09
2022-12-12T13:08:26.917Z,51.95
2022-12-12T13:10:59.680Z,51.94
2022-12-12T13:13:31.405Z,52.00
2022-12-12T13:16:18.048Z,51.90
2022-12-12T13:18:47.992Z,51.96
2022-12-12T13:21:25.050Z,51.86
2022-12-12T13:24:16.996Z,51.80
2022-12-12T13:26:55.776Z,51.74
2022-12-12T13:29:40.111Z,51.61
2022-12-12T13:32:18.898Z,51.41
2022-12-12T13:34:50.816Z,51.33
2022-12-12T13:37:20.919Z,51.47
2022-12-12T13:39:58.508Z,51.26
2022-12-12T13:42:25.172Z,51.26
2022-12-12T13:44:51.908Z,51.23
2022-12-12T13:47:24.628Z,51.28
2022-12-12T13:50:01.068Z,51.26
2022-12-12T13:52:33.085Z,51.24
2022-12-12T13:55:11.632Z,51.16
2022-12-12T13:58:17.155Z,51.02
2022-12-12T14:00:43.936Z,51.17
2022-12-12T14:03:10.475Z,51.26
2022-12-12T14:05:41.128Z,51.22
2022-12-12T14:08:10.690Z,51.15
2022-12-12T14:10:43.563Z,51.24
2022-12-12T14:13:17.386Z,51.09
2022-12-12T14:15:45.296Z,51.09
2022-12-12T14:18:29.965Z,51.14
2022-12-12T14:21:02.332Z,51.09
2022-12-12T14:23:30.477Z,51.18
2022-12-12T14:25:59.792Z,50.96
2022-12-12T14:28:31.915Z,51.17
2022-12-12T14:31:16.500Z,51.25
2022-12-12T14:33:46.077Z,51.26
2022-12-12T14:36:49.685Z,51.19
2022-12-12T14:39:51.559Z,51.36
2022-12-12T14:43:20.522Z,51.36
2022-12-12T14:45:37.253Z,51.41
2022-12-12T14:48:20.564Z,51.54
2022-12-12T14:50:49.767Z,51.49
2022-12-12T14:53:23.675Z,51.54
2022-12-12T14:56:00.437Z,51.48
2022-12-12T14:58:30.286Z,51.56
2022-12-12T15:00:59.822Z,51.68
2022-12-12T15:03:33.718Z,51.55
2022-12-12T15:06:18.756Z,51.66
2022-12-12T15:08:45.433Z,51.50
2022-12-12T15:11:16.841Z,51.46
2022-12-12T15:13:55.140Z,51.52
2022-12-12T15:16:29.740Z,51.50
2022-12-12T15:18:58.714Z,51.50
2022-12-12T15:21:25.695Z,51.55
2022-12-12T15:23:52.351Z,51.57
2022-12-12T15:26:26.295Z,51.47
2022-12-12T15:28:53.431Z,51.48
2022-12-12T15:31:20.839Z,51.49
2022-12-12T15:33:49.332Z,51.57
2022-12-12T15:36:28.383Z,51.65
2022-12-12T15:39:24.483Z,51.77
2022-12-12T15:41:51.149Z,51.70
2022-12-12T15:44:19.945Z,51.83
2022-12-12T15:46:48.282Z,51.73
2022-12-12T15:49:47.129Z,51.89
2022-12-12T15:52:21.199Z,51.91
2022-12-12T15:54:54.749Z,51.82
2022-12-12T15:57:25.764Z,52.06
2022-12-12T15:59:58.282Z,51.97
2022-12-12T16:02:33.037Z,51.96
2022-12-12T16:05:18.116Z,52.26
2022-12-12T16:07:44.953Z,52.26
2022-12-12T16:10:11.681Z,52.26
2022-12-12T16:12:58.591Z,52.22
2022-12-12T16:15:34.066Z,52.33
2022-12-12T16:18:05.452Z,52.24
2022-12-12T16:20:33.174Z,52.24
2022-12-12T16:23:33.567Z,52.26
2022-12-12T16:26:00.185Z,52.31
2022-12-12T16:28:29.444Z,52.42
2022-12-12T16:31:04.408Z,52.41
2022-12-12T16:33:35.016Z,52.54
2022-12-12T16:36:07.617Z,52.50
2022-12-12T16:38:34.868Z,52.56
2022-12-12T16:41:06.756Z,52.69
2022-12-12T16:43:37.052Z,52.53
2022-12-12T16:46:03.834Z,52.64
2022-12-12T16:48:36.007Z,52.84
2022-12-12T16:51:06.183Z,52.69
2022-12-12T16:53:34.977Z,52.77
2022-12-12T16:56:02.716Z,52.76
2022-12-12T16:58:32.319Z,52.85
2022-12-12T17:01:00.340Z,52.66
2022-12-12T17:03:42.657Z,53.02
2022-12-12T17:06:09.292Z,52.86
2022-12-12T17:08:35.951Z,52.80
2022-12-12T17:11:10.040Z,52.97
2022-12-12T17:13:41.216Z,52.72
2022-12-12T17:16:07.861Z,52.99
2022-12-12T17:18:34.501Z,53.05
2022-12-12T17:21:01.035Z,52.99
2022-12-12T17:23:29.130Z,53.16
2022-12-12T17:26:01.062Z,53.02
2022-12-12T17:28:31.946Z,53.02
2022-12-12T17:30:58.689Z,53.12
2022-12-12T17:33:25.633Z,53.13
2022-12-12T17:35:59.571Z,53.13
2022-12-12T17:38:26.251Z,53.34
2022-12-12T17:40:54.012Z,53.20
2022-12-12T17:43:20.652Z,53.19
2022-12-12T17:45:57.328Z,53.36
2022-12-12T17:48:23.879Z,53.32
2022-12-12T17:51:01.645Z,53.30
2022-12-12T17:53:36.656Z,53.23
2022-12-12T17:56:08.182Z,53.33
2022-12-12T17:58:41.206Z,53.41
2022-12-12T18:01:20.685Z,53.24
2022-12-12T18:03:48.143Z,53.25
2022-12-12T18:06:15.811Z,53.34
2022-12-12T18:08:42.758Z,53.44
2022-12-12T18:11:11.628Z,53.52
2022-12-12T18:13:39.812Z,53.38
2022-12-12T18:16:10.620Z,53.38
2022-12-12T18:18:37.303Z,53.35
2022-12-12T18:21:05.859Z,53.38
2022-12-12T18:23:33.145Z,53.48
2022-12-12T18:26:08.910Z,53.37
2022-12-12T18:28:35.988Z,53.37
2022-12-12T18:31:03.632Z,53.38
2022-12-12T18:33:30.488Z,53.39
2022-12-12T18:36:01.771Z,53.56
2022-12-12T18:38:28.940Z,53.33
2022-12-12T18:40:55.561Z,53.61
2022-12-12T18:43:24.199Z,53.38
2022-12-12T18:45:50.868Z,53.40
2022-12-12T18:48:17.417Z,53.33
2022-12-12T18:50:43.940Z,53.43
2022-12-12T18:53:10.438Z,53.37
2022-12-12T18:55:43.614Z,53.43
2022-12-12T18:58:11.026Z,53.37
2022-12-12T19:00:40.309Z,53.37
2022-12-12T19:03:08.080Z,53.28
2022-12-12T19:05:40.396Z,53.46
2022-12-12T19:08:07.473Z,53.45
2022-12-12T19:10:35.978Z,53.51
2022-12-12T19:13:03.015Z,53.53
2022-12-12T19:15:29.748Z,53.61
2022-12-12T19:17:57.388Z,53.59
2022-12-12T19:20:24.949Z,53.42
2022-12-12T19:22:51.583Z,53.53
2022-12-12T19:25:18.859Z,53.71
2022-12-12T19:27:45.628Z,53.72
2022-12-12T19:30:13.608Z,53.65
2022-12-12T19:32:41.782Z,53.60
2022-12-12T19:35:08.614Z,53.68
2022-12-12T19:37:38.260Z,53.75
2022-12-12T19:40:05.253Z,53.71
2022-12-12T19:42:31.734Z,53.80
2022-12-12T19:44:58.236Z,53.79
2022-12-12T19:47:25.443Z,53.86
2022-12-12T19:49:52.022Z,53.94
2022-12-12T19:52:19.689Z,53.94
2022-12-12T19:54:46.332Z,53.94
2022-12-12T19:57:12.856Z,54.15
2022-12-12T19:59:39.528Z,54.09
2022-12-12T20:02:07.118Z,53.99
2022-12-12T20:04:33.709Z,54.08
2022-12-12T20:07:00.284Z,54.06
2022-12-12T20:09:29.268Z,54.00
2022-12-12T20:11:57.913Z,54.04
2022-12-12T20:14:26.903Z,54.21
2022-12-12T20:16:54.464Z,54.17
2022-12-12T20:19:22.343Z,54.14
2022-12-12T20:22:05.609Z,54.22
2022-12-12T20:24:33.681Z,54.08
2022-12-12T20:27:02.952Z,54.34
2022-12-12T20:29:29.437Z,54.37
2022-12-12T20:31:56.016Z,54.47
2022-12-12T20:34:24.399Z,54.38
2022-12-12T20:36:51.846Z,54.57
2022-12-12T20:39:20.878Z,54.60
2022-12-12T20:41:48.540Z,54.59
2022-12-12T20:44:15.323Z,54.45
2022-12-12T20:46:44.482Z,54.40
2022-12-12T20:49:16.114Z,54.51
2022-12-12T20:51:55.179Z,54.29
2022-12-12T20:54:24.419Z,54.23
2022-12-12T20:56:52.233Z,54.40
2022-12-12T20:59:18.819Z,54.49
2022-12-12T21:01:47.117Z,54.22
2022-12-12T21:04:14.146Z,54.33
2022-12-12T21:06:47.781Z,54.41
2022-12-12T21:09:22.791Z,54.50
2022-12-12T21:11:52.074Z,54.35
2022-12-12T21:14:18.823Z,54.32
2022-12-12T21:16:45.344Z,54.32
2022-12-12T21:19:13.642Z,54.35
2022-12-12T21:21:42.076Z,54.49
2022-12-12T21:24:11.963Z,54.21
2022-12-12T21:26:38.911Z,54.38
2022-12-12T21:29:05.813Z,54.44
2022-12-12T21:31:36.813Z,54.44
2022-12-12T21:34:05.303Z,54.42
2022-12-12T21:36:32.585Z,54.38
2022-12-12T21:39:01.127Z,54.36
2022-12-12T21:41:28.367Z,54.31
2022-12-12T21:43:59.381Z,54.49
2022-12-12T21:46:27.545Z,54.35
2022-12-12T21:49:12.716Z,54.27
2022-12-12T21:51:40.777Z,54.43
2022-12-12T21:54:09.426Z,54.39
2022-12-12T21:56:36.044Z,54.29
2022-12-12T21:59:03.370Z,54.24
2022-12-12T22:01:31.889Z,54.16
2022-12-12T22:03:59.497Z,54.21
2022-12-12T22:06:28.615Z,54.27
2022-12-12T22:08:56.305Z,54.14
2022-12-12T22:11:40.485Z,54.37
2022-12-12T22:14:10.824Z,54.13
2022-12-12T22:16:37.739Z,54.20
2022-12-12T22:19:08.082Z,54.09
2022-12-12T22:21:35.487Z,54.09
2022-12-12T22:24:02.524Z,54.20
2022-12-12T22:26:39.316Z,54.14
2022-12-12T22:29:09.907Z,54.20
2022-12-12T22:31:38.130Z,54.15
2022-12-12T22:34:12.348Z,54.33
2022-12-12T22:36:39.759Z,54.24
2022-12-12T22:39:08.460Z,54.48
2022-12-12T22:41:35.077Z,54.47
2022-12-12T22:44:04.091Z,54.51
2022-12-12T22:46:31.387Z,54.33
2022-12-12T22:49:00.336Z,54.39
2022-12-12T22:51:29.726Z,54.46
2022-12-12T22:53:57.952Z,54.50
2022-12-12T22:56:24.556Z,54.59
2022-12-12T22:58:51.095Z,54.47
2022-12-12T23:01:21.205Z,54.60
2022-12-12T23:03:48.550Z,54.57
2022-12-12T23:06:18.548Z,54.57
2022-12-12T23:08:50.894Z,54.60
2022-12-12T23:11:18.688Z,54.52
2022-12-12T23:13:45.653Z,54.52
2022-12-12T23:16:16.257Z,54.31
2022-12-12T23:18:43.844Z,54.28
2022-12-12T23:21:16.756Z,54.43
2022-12-12T23:23:44.845Z,54.57
2022-12-12T23:26:16.773Z,54.40
2022-12-12T23:28:44.246Z,54.39
2022-12-12T23:31:20.079Z,54.32
2022-12-12T23:33:47.004Z,54.46
2022-12-12T23:36:15.195Z,54.23
2022-12-12T23:38:42.515Z,54.21
2022-12-12T23:41:12.442Z,54.39
2022-12-12T23:43:40.283Z,54.37
2022-12-12T23:46:27.945Z,54.23
2022-12-12T23:48:59.410Z,54.41
2022-12-12T23:51:27.864Z,54.26
2022-12-12T23:53:57.682Z,54.20
2022-12-12T23:56:24.803Z,54.31
2022-12-12T23:58:58.472Z,54.40
